Startpagina
METAR-TAF:

METAR-TAF

Vliegvelden :

Lankaran, Azerbeidzjan

breedte: 38-44-47N, lengte: 048-49-04E, hoogte: 9 m

Actueel weer

Dit bericht is 41 minuten geleden gemaakt, om 06:00 UTC
Wind 2 kt uit variabele richting
Temperatuur 28°C
Vochtigheid 62%
Druk 1005 hPa
Zicht: 9000 m

METAR: UBBL 160600Z VRB02KT 9000 NSC 28/20 Q1005 R33/CLRD// NOSIG RMK MT OP

Tijdstip: 10:41 (06:41 UTC)

Verwachting

Dit bericht is 1 uur en het 27 minuten geleden gemaakt, om 05:14 UTC
Verwachting geldig van 16 om 06 UTC tot 17 om 06 UTC
Wind 4 kt uit variabele richting
Zicht 10 km of meer
Wijzigt naar
van 16 om 08 UTC tot 16 om 10 UTC
Wind 8 kt uit het oostzuidoosten
Tijdelijke
van 16 om 10 UTC tot 16 om 18 UTC
Weinig wolken op 5000 ft, Cumulonimbus.
Gebroken wolken op 8000 ft
Tijdelijke
van 16 om 18 UTC tot 17 om 06 UTC
Wind 4 kt uit variabele richting

TAF: UBBL 160514Z 1606/1706 VRB04KT 9999 NSC TX30/1610Z TN19/1702Z BECMG 1608/1610 12008KT TEMPO 1610/1618 FEW050CB BKN080 TEMPO 1618/1706 VRB04KT

Waarnemingen en weersverwachtingen van meer dan 4000 vliegvelden (METAR en TAF).

De beschikbare stations zijn de gele en rode punten op de kaart.

Ga met uw muis naar het station om de naam te zien.

Klik dan om waarnemingen en weersverwachtingen te zien.

kaart wijzigen: klik op de groene knoppen met een zwart kruis om in te zoomen, op de groene knop met een streepje om uit te zoomen of op de groene pijlen voor aangrenzende kaarten.


METAR-TAF: